sensor_id;sensor_type;location;lat;lon;timestamp;pressure;altitude;pressure_sealevel;temperature
67501;BMP180;54349;52.528;19.760;2023-05-24T00:00:56;100254.80;;;25.90
67501;BMP180;54349;52.528;19.760;2023-05-24T00:03:26;100256.40;;;25.90
67501;BMP180;54349;52.528;19.760;2023-05-24T00:05:58;100248.00;;;25.90
67501;BMP180;54349;52.528;19.760;2023-05-24T00:08:26;100250.20;;;25.88
67501;BMP180;54349;52.528;19.760;2023-05-24T00:10:54;100252.60;;;25.84
67501;BMP180;54349;52.528;19.760;2023-05-24T00:13:22;100252.60;;;25.84
67501;BMP180;54349;52.528;19.760;2023-05-24T00:15:50;100251.20;;;25.82
67501;BMP180;54349;52.528;19.760;2023-05-24T00:18:18;100253.80;;;25.80
67501;BMP180;54349;52.528;19.760;2023-05-24T00:20:46;100252.40;;;25.80
67501;BMP180;54349;52.528;19.760;2023-05-24T00:23:14;100255.40;;;25.80
67501;BMP180;54349;52.528;19.760;2023-05-24T00:25:43;100254.40;;;25.80
67501;BMP180;54349;52.528;19.760;2023-05-24T00:28:11;100250.60;;;25.80
67501;BMP180;54349;52.528;19.760;2023-05-24T00:30:39;100255.40;;;25.80
67501;BMP180;54349;52.528;19.760;2023-05-24T00:33:08;100253.60;;;25.80
67501;BMP180;54349;52.528;19.760;2023-05-24T00:35:36;100251.80;;;25.80
67501;BMP180;54349;52.528;19.760;2023-05-24T00:38:04;100250.40;;;25.88
67501;BMP180;54349;52.528;19.760;2023-05-24T00:40:32;100255.20;;;25.90
67501;BMP180;54349;52.528;19.760;2023-05-24T00:43:00;100254.80;;;26.00
67501;BMP180;54349;52.528;19.760;2023-05-24T00:45:28;100258.00;;;26.00
67501;BMP180;54349;52.528;19.760;2023-05-24T00:48:00;100253.40;;;26.06
67501;BMP180;54349;52.528;19.760;2023-05-24T00:50:28;100256.60;;;26.10
67501;BMP180;54349;52.528;19.760;2023-05-24T00:53:01;100255.20;;;26.10
67501;BMP180;54349;52.528;19.760;2023-05-24T00:55:29;100254.60;;;26.10
67501;BMP180;54349;52.528;19.760;2023-05-24T00:57:57;100251.40;;;26.10
67501;BMP180;54349;52.528;19.760;2023-05-24T01:00:26;100253.60;;;26.10
67501;BMP180;54349;52.528;19.760;2023-05-24T01:02:55;100249.60;;;26.18
67501;BMP180;54349;52.528;19.760;2023-05-24T01:05:24;100253.20;;;26.18
67501;BMP180;54349;52.528;19.760;2023-05-24T01:08:19;100255.60;;;26.20
67501;BMP180;54349;52.528;19.760;2023-05-24T01:11:00;100255.80;;;26.20
67501;BMP180;54349;52.528;19.760;2023-05-24T01:13:51;100257.60;;;26.20
67501;BMP180;54349;52.528;19.760;2023-05-24T01:16:27;100260.80;;;26.20
67501;BMP180;54349;52.528;19.760;2023-05-24T01:19:04;100257.40;;;26.20
67501;BMP180;54349;52.528;19.760;2023-05-24T01:22:37;100254.00;;;26.20
67501;BMP180;54349;52.528;19.760;2023-05-24T01:27:56;100262.20;;;26.20
67501;BMP180;54349;52.528;19.760;2023-05-24T01:30:26;100259.80;;;26.18
67501;BMP180;54349;52.528;19.760;2023-05-24T01:32:56;100254.00;;;26.18
67501;BMP180;54349;52.528;19.760;2023-05-24T01:35:24;100260.40;;;26.12
67501;BMP180;54349;52.528;19.760;2023-05-24T01:37:52;100255.80;;;26.10
67501;BMP180;54349;52.528;19.760;2023-05-24T01:40:21;100249.00;;;26.10
67501;BMP180;54349;52.528;19.760;2023-05-24T01:43:06;100253.80;;;26.10
67501;BMP180;54349;52.528;19.760;2023-05-24T01:48:33;100256.00;;;26.10
67501;BMP180;54349;52.528;19.760;2023-05-24T01:51:08;100255.60;;;26.10
67501;BMP180;54349;52.528;19.760;2023-05-24T01:53:45;100257.80;;;26.10
67501;BMP180;54349;52.528;19.760;2023-05-24T01:56:19;100253.00;;;26.10
67501;BMP180;54349;52.528;19.760;2023-05-24T01:58:50;100253.20;;;26.10
67501;BMP180;54349;52.528;19.760;2023-05-24T02:01:19;100256.00;;;26.08
67501;BMP180;54349;52.528;19.760;2023-05-24T02:03:49;100255.60;;;26.06
67501;BMP180;54349;52.528;19.760;2023-05-24T02:06:17;100251.00;;;26.00
67501;BMP180;54349;52.528;19.760;2023-05-24T02:08:46;100248.40;;;26.00
67501;BMP180;54349;52.528;19.760;2023-05-24T02:11:15;100244.60;;;26.00
67501;BMP180;54349;52.528;19.760;2023-05-24T02:13:43;100247.20;;;26.00
67501;BMP180;54349;52.528;19.760;2023-05-24T02:16:11;100250.80;;;26.00
67501;BMP180;54349;52.528;19.760;2023-05-24T02:18:42;100254.00;;;26.00
67501;BMP180;54349;52.528;19.760;2023-05-24T02:21:13;100244.40;;;26.00
67501;BMP180;54349;52.528;19.760;2023-05-24T02:23:43;100241.80;;;26.00
67501;BMP180;54349;52.528;19.760;2023-05-24T02:26:11;100242.80;;;25.92
67501;BMP180;54349;52.528;19.760;2023-05-24T02:28:40;100243.20;;;25.90
67501;BMP180;54349;52.528;19.760;2023-05-24T02:31:09;100249.40;;;25.90
67501;BMP180;54349;52.528;19.760;2023-05-24T02:33:37;100256.80;;;25.90
67501;BMP180;54349;52.528;19.760;2023-05-24T02:36:05;100259.80;;;25.90
67501;BMP180;54349;52.528;19.760;2023-05-24T02:38:33;100266.00;;;25.90
67501;BMP180;54349;52.528;19.760;2023-05-24T02:41:02;100268.40;;;25.90
67501;BMP180;54349;52.528;19.760;2023-05-24T02:43:30;100255.80;;;25.88
67501;BMP180;54349;52.528;19.760;2023-05-24T02:45:58;100261.20;;;25.84
67501;BMP180;54349;52.528;19.760;2023-05-24T02:48:26;100260.60;;;25.80
67501;BMP180;54349;52.528;19.760;2023-05-24T02:50:54;100258.80;;;25.80
67501;BMP180;54349;52.528;19.760;2023-05-24T02:53:22;100256.40;;;25.80
67501;BMP180;54349;52.528;19.760;2023-05-24T02:55:50;100258.80;;;25.80
67501;BMP180;54349;52.528;19.760;2023-05-24T02:58:18;100264.60;;;25.80
67501;BMP180;54349;52.528;19.760;2023-05-24T03:00:48;100265.40;;;25.80
67501;BMP180;54349;52.528;19.760;2023-05-24T03:03:17;100264.20;;;25.80
67501;BMP180;54349;52.528;19.760;2023-05-24T03:05:46;100259.60;;;25.80
67501;BMP180;54349;52.528;19.760;2023-05-24T03:08:14;100255.80;;;25.72
67501;BMP180;54349;52.528;19.760;2023-05-24T03:10:43;100259.60;;;25.70
67501;BMP180;54349;52.528;19.760;2023-05-24T03:13:12;100255.40;;;25.70
67501;BMP180;54349;52.528;19.760;2023-05-24T03:15:41;100257.40;;;25.70
67501;BMP180;54349;52.528;19.760;2023-05-24T03:18:09;100257.80;;;25.70
67501;BMP180;54349;52.528;19.760;2023-05-24T03:20:38;100259.20;;;25.70
67501;BMP180;54349;52.528;19.760;2023-05-24T03:23:07;100255.20;;;25.70
67501;BMP180;54349;52.528;19.760;2023-05-24T03:25:36;100259.00;;;25.70
67501;BMP180;54349;52.528;19.760;2023-05-24T03:28:05;100261.40;;;25.66
67501;BMP180;54349;52.528;19.760;2023-05-24T03:30:34;100264.00;;;25.60
67501;BMP180;54349;52.528;19.760;2023-05-24T03:33:02;100265.20;;;25.60
67501;BMP180;54349;52.528;19.760;2023-05-24T03:35:30;100265.20;;;25.60
67501;BMP180;54349;52.528;19.760;2023-05-24T03:37:58;100269.00;;;25.60
67501;BMP180;54349;52.528;19.760;2023-05-24T03:40:28;100273.00;;;25.60
67501;BMP180;54349;52.528;19.760;2023-05-24T03:43:06;100273.80;;;25.60
67501;BMP180;54349;52.528;19.760;2023-05-24T03:45:45;100270.60;;;25.60
67501;BMP180;54349;52.528;19.760;2023-05-24T03:48:14;100274.00;;;25.60
67501;BMP180;54349;52.528;19.760;2023-05-24T03:50:42;100280.40;;;25.60
67501;BMP180;54349;52.528;19.760;2023-05-24T03:53:11;100283.80;;;25.54
67501;BMP180;54349;52.528;19.760;2023-05-24T03:55:39;100286.40;;;25.50
67501;BMP180;54349;52.528;19.760;2023-05-24T03:58:07;100289.40;;;25.50
67501;BMP180;54349;52.528;19.760;2023-05-24T04:00:35;100291.40;;;25.50
67501;BMP180;54349;52.528;19.760;2023-05-24T04:03:04;100295.20;;;25.50
67501;BMP180;54349;52.528;19.760;2023-05-24T04:05:34;100295.20;;;25.50
67501;BMP180;54349;52.528;19.760;2023-05-24T04:08:02;100299.00;;;25.50
67501;BMP180;54349;52.528;19.760;2023-05-24T04:10:31;100303.40;;;25.50
67501;BMP180;54349;52.528;19.760;2023-05-24T04:12:59;100307.80;;;25.50
67501;BMP180;54349;52.528;19.760;2023-05-24T04:15:27;100305.80;;;25.50
67501;BMP180;54349;52.528;19.760;2023-05-24T04:17:55;100306.00;;;25.50
67501;BMP180;54349;52.528;19.760;2023-05-24T04:20:24;100309.40;;;25.50
67501;BMP180;54349;52.528;19.760;2023-05-24T04:22:54;100306.20;;;25.50
67501;BMP180;54349;52.528;19.760;2023-05-24T04:25:23;100307.40;;;25.50
67501;BMP180;54349;52.528;19.760;2023-05-24T04:27:51;100309.60;;;25.50
67501;BMP180;54349;52.528;19.760;2023-05-24T04:30:20;100318.20;;;25.42
67501;BMP180;54349;52.528;19.760;2023-05-24T04:32:50;100324.60;;;25.40
67501;BMP180;54349;52.528;19.760;2023-05-24T04:35:18;100332.60;;;25.42
67501;BMP180;54349;52.528;19.760;2023-05-24T04:37:47;100329.00;;;25.40
67501;BMP180;54349;52.528;19.760;2023-05-24T04:40:17;100327.20;;;25.40
67501;BMP180;54349;52.528;19.760;2023-05-24T04:42:50;100329.80;;;25.40
67501;BMP180;54349;52.528;19.760;2023-05-24T04:45:18;100331.80;;;25.40
67501;BMP180;54349;52.528;19.760;2023-05-24T04:47:46;100331.40;;;25.40
67501;BMP180;54349;52.528;19.760;2023-05-24T04:50:15;100333.40;;;25.40
67501;BMP180;54349;52.528;19.760;2023-05-24T04:52:43;100331.00;;;25.40
67501;BMP180;54349;52.528;19.760;2023-05-24T04:55:11;100331.20;;;25.40
67501;BMP180;54349;52.528;19.760;2023-05-24T04:57:39;100332.00;;;25.40
67501;BMP180;54349;52.528;19.760;2023-05-24T05:00:09;100335.20;;;25.40
67501;BMP180;54349;52.528;19.760;2023-05-24T05:02:37;100334.40;;;25.40
67501;BMP180;54349;52.528;19.760;2023-05-24T05:05:06;100340.40;;;25.40
67501;BMP180;54349;52.528;19.760;2023-05-24T05:07:35;100341.40;;;25.40
67501;BMP180;54349;52.528;19.760;2023-05-24T05:10:05;100341.00;;;25.40
67501;BMP180;54349;52.528;19.760;2023-05-24T05:12:33;100336.80;;;25.40
67501;BMP180;54349;52.528;19.760;2023-05-24T05:15:01;100340.80;;;25.40
67501;BMP180;54349;52.528;19.760;2023-05-24T05:17:29;100343.80;;;25.40
67501;BMP180;54349;52.528;19.760;2023-05-24T05:19:58;100346.40;;;25.40
67501;BMP180;54349;52.528;19.760;2023-05-24T05:22:26;100350.00;;;25.40
67501;BMP180;54349;52.528;19.760;2023-05-24T05:24:58;100353.40;;;25.40
67501;BMP180;54349;52.528;19.760;2023-05-24T05:27:26;100364.60;;;25.40
67501;BMP180;54349;52.528;19.760;2023-05-24T05:29:54;100368.20;;;25.40
67501;BMP180;54349;52.528;19.760;2023-05-24T05:32:22;100369.00;;;25.40
67501;BMP180;54349;52.528;19.760;2023-05-24T05:34:50;100373.00;;;25.40
67501;BMP180;54349;52.528;19.760;2023-05-24T05:37:19;100375.60;;;25.40
67501;BMP180;54349;52.528;19.760;2023-05-24T05:39:47;100381.40;;;25.40
67501;BMP180;54349;52.528;19.760;2023-05-24T05:42:15;100387.20;;;25.40
67501;BMP180;54349;52.528;19.760;2023-05-24T05:44:43;100391.60;;;25.40
67501;BMP180;54349;52.528;19.760;2023-05-24T05:47:11;100388.80;;;25.38
67501;BMP180;54349;52.528;19.760;2023-05-24T05:49:39;100393.40;;;25.38
67501;BMP180;54349;52.528;19.760;2023-05-24T05:52:08;100394.00;;;25.40
67501;BMP180;54349;52.528;19.760;2023-05-24T05:54:36;100396.60;;;25.40
67501;BMP180;54349;52.528;19.760;2023-05-24T05:57:04;100394.80;;;25.40
67501;BMP180;54349;52.528;19.760;2023-05-24T05:59:35;100400.40;;;25.40
67501;BMP180;54349;52.528;19.760;2023-05-24T06:02:04;100401.60;;;25.40
67501;BMP180;54349;52.528;19.760;2023-05-24T06:04:33;100408.20;;;25.40
67501;BMP180;54349;52.528;19.760;2023-05-24T06:07:01;100409.60;;;25.38
67501;BMP180;54349;52.528;19.760;2023-05-24T06:09:30;100409.60;;;25.40
67501;BMP180;54349;52.528;19.760;2023-05-24T06:11:58;100413.40;;;25.40
67501;BMP180;54349;52.528;19.760;2023-05-24T06:14:26;100414.60;;;25.40
67501;BMP180;54349;52.528;19.760;2023-05-24T06:16:54;100420.20;;;25.50
67501;BMP180;54349;52.528;19.760;2023-05-24T06:19:24;100422.20;;;25.50
67501;BMP180;54349;52.528;19.760;2023-05-24T06:21:53;100423.40;;;25.50
67501;BMP180;54349;52.528;19.760;2023-05-24T06:24:22;100426.20;;;25.54
67501;BMP180;54349;52.528;19.760;2023-05-24T06:26:51;100429.40;;;25.60
67501;BMP180;54349;52.528;19.760;2023-05-24T06:29:20;100434.20;;;25.60
67501;BMP180;54349;52.528;19.760;2023-05-24T06:31:49;100437.40;;;25.62
67501;BMP180;54349;52.528;19.760;2023-05-24T06:34:19;100437.40;;;25.70
67501;BMP180;54349;52.528;19.760;2023-05-24T06:36:50;100438.40;;;25.60
67501;BMP180;54349;52.528;19.760;2023-05-24T06:39:20;100440.00;;;25.60
67501;BMP180;54349;52.528;19.760;2023-05-24T06:41:48;100447.20;;;25.60
67501;BMP180;54349;52.528;19.760;2023-05-24T06:44:23;100444.60;;;25.60
67501;BMP180;54349;52.528;19.760;2023-05-24T06:47:00;100449.40;;;25.58
67501;BMP180;54349;52.528;19.760;2023-05-24T06:49:29;100451.40;;;25.56
67501;BMP180;54349;52.528;19.760;2023-05-24T06:51:57;100453.80;;;25.54
67501;BMP180;54349;52.528;19.760;2023-05-24T06:54:25;100455.20;;;25.50
67501;BMP180;54349;52.528;19.760;2023-05-24T06:56:53;100453.20;;;25.50
67501;BMP180;54349;52.528;19.760;2023-05-24T06:59:22;100454.60;;;25.50
67501;BMP180;54349;52.528;19.760;2023-05-24T07:01:50;100461.60;;;25.50
67501;BMP180;54349;52.528;19.760;2023-05-24T07:04:27;100461.00;;;25.50
67501;BMP180;54349;52.528;19.760;2023-05-24T07:06:56;100459.80;;;25.50
67501;BMP180;54349;52.528;19.760;2023-05-24T07:09:25;100459.60;;;25.50
67501;BMP180;54349;52.528;19.760;2023-05-24T07:11:53;100461.80;;;25.50
67501;BMP180;54349;52.528;19.760;2023-05-24T07:14:22;100465.80;;;25.50
67501;BMP180;54349;52.528;19.760;2023-05-24T07:16:51;100472.00;;;25.50
67501;BMP180;54349;52.528;19.760;2023-05-24T07:19:21;100472.00;;;25.50
67501;BMP180;54349;52.528;19.760;2023-05-24T07:21:49;100474.40;;;25.50
67501;BMP180;54349;52.528;19.760;2023-05-24T07:24:18;100476.00;;;25.50
67501;BMP180;54349;52.528;19.760;2023-05-24T07:26:50;100476.20;;;25.50
67501;BMP180;54349;52.528;19.760;2023-05-24T07:29:20;100478.20;;;25.50
67501;BMP180;54349;52.528;19.760;2023-05-24T07:31:48;100478.40;;;25.50
67501;BMP180;54349;52.528;19.760;2023-05-24T07:34:18;100480.20;;;25.50
67501;BMP180;54349;52.528;19.760;2023-05-24T07:36:48;100480.80;;;25.50
67501;BMP180;54349;52.528;19.760;2023-05-24T07:39:16;100485.60;;;25.50
67501;BMP180;54349;52.528;19.760;2023-05-24T07:41:45;100489.60;;;25.50
67501;BMP180;54349;52.528;19.760;2023-05-24T07:44:14;100490.20;;;25.50
67501;BMP180;54349;52.528;19.760;2023-05-24T07:46:43;100492.00;;;25.50
67501;BMP180;54349;52.528;19.760;2023-05-24T07:49:11;100492.40;;;25.50
67501;BMP180;54349;52.528;19.760;2023-05-24T07:51:39;100489.40;;;25.50
67501;BMP180;54349;52.528;19.760;2023-05-24T07:54:07;100487.20;;;25.52
67501;BMP180;54349;52.528;19.760;2023-05-24T07:56:35;100491.00;;;25.50
67501;BMP180;54349;52.528;19.760;2023-05-24T07:59:04;100491.60;;;25.60
67501;BMP180;54349;52.528;19.760;2023-05-24T08:01:34;100496.40;;;25.58
67501;BMP180;54349;52.528;19.760;2023-05-24T08:04:03;100509.40;;;25.60
67501;BMP180;54349;52.528;19.760;2023-05-24T08:06:32;100513.40;;;25.60
67501;BMP180;54349;52.528;19.760;2023-05-24T08:09:02;100519.20;;;25.60
67501;BMP180;54349;52.528;19.760;2023-05-24T08:11:32;100518.40;;;25.60
67501;BMP180;54349;52.528;19.760;2023-05-24T08:14:00;100520.00;;;25.60
67501;BMP180;54349;52.528;19.760;2023-05-24T08:16:28;100521.20;;;25.60
67501;BMP180;54349;52.528;19.760;2023-05-24T08:18:57;100527.60;;;25.60
67501;BMP180;54349;52.528;19.760;2023-05-24T08:21:26;100528.60;;;25.60
67501;BMP180;54349;52.528;19.760;2023-05-24T08:23:56;100531.80;;;25.60
67501;BMP180;54349;52.528;19.760;2023-05-24T08:26:25;100534.80;;;25.60
67501;BMP180;54349;52.528;19.760;2023-05-24T08:28:53;100528.00;;;25.60
67501;BMP180;54349;52.528;19.760;2023-05-24T08:31:22;100530.60;;;25.60
67501;BMP180;54349;52.528;19.760;2023-05-24T08:33:51;100535.20;;;25.60
67501;BMP180;54349;52.528;19.760;2023-05-24T08:36:20;100530.80;;;25.60
67501;BMP180;54349;52.528;19.760;2023-05-24T08:38:48;100538.40;;;25.60
67501;BMP180;54349;52.528;19.760;2023-05-24T08:41:16;100536.80;;;25.62
67501;BMP180;54349;52.528;19.760;2023-05-24T08:43:46;100539.20;;;25.64
67501;BMP180;54349;52.528;19.760;2023-05-24T08:46:16;100542.00;;;25.64
67501;BMP180;54349;52.528;19.760;2023-05-24T08:48:47;100539.40;;;25.66
67501;BMP180;54349;52.528;19.760;2023-05-24T08:51:16;100543.80;;;25.70
67501;BMP180;54349;52.528;19.760;2023-05-24T08:53:45;100543.00;;;25.70
67501;BMP180;54349;52.528;19.760;2023-05-24T08:56:17;100545.40;;;25.70
67501;BMP180;54349;52.528;19.760;2023-05-24T08:58:45;100552.40;;;25.70
67501;BMP180;54349;52.528;19.760;2023-05-24T09:01:16;100551.60;;;25.70
67501;BMP180;54349;52.528;19.760;2023-05-24T09:03:46;100561.60;;;25.70
67501;BMP180;54349;52.528;19.760;2023-05-24T09:06:17;100563.20;;;25.70
67501;BMP180;54349;52.528;19.760;2023-05-24T09:08:46;100568.20;;;25.70
67501;BMP180;54349;52.528;19.760;2023-05-24T09:11:19;100563.00;;;25.70
67501;BMP180;54349;52.528;19.760;2023-05-24T09:13:50;100561.80;;;25.70
67501;BMP180;54349;52.528;19.760;2023-05-24T09:16:18;100558.40;;;25.74
67501;BMP180;54349;52.528;19.760;2023-05-24T09:18:46;100559.40;;;25.80
67501;BMP180;54349;52.528;19.760;2023-05-24T09:21:15;100569.00;;;25.80
67501;BMP180;54349;52.528;19.760;2023-05-24T09:23:46;100569.40;;;25.80
67501;BMP180;54349;52.528;19.760;2023-05-24T09:26:14;100574.40;;;25.80
67501;BMP180;54349;52.528;19.760;2023-05-24T09:28:42;100571.80;;;25.80
67501;BMP180;54349;52.528;19.760;2023-05-24T09:31:11;100577.40;;;25.80
67501;BMP180;54349;52.528;19.760;2023-05-24T09:33:40;100582.20;;;25.84
67501;BMP180;54349;52.528;19.760;2023-05-24T09:36:09;100586.40;;;25.90
67501;BMP180;54349;52.528;19.760;2023-05-24T09:38:38;100591.80;;;25.90
67501;BMP180;54349;52.528;19.760;2023-05-24T09:41:07;100596.80;;;25.90
67501;BMP180;54349;52.528;19.760;2023-05-24T09:43:48;100600.20;;;25.90
67501;BMP180;54349;52.528;19.760;2023-05-24T09:46:18;100598.80;;;25.90
67501;BMP180;54349;52.528;19.760;2023-05-24T09:48:58;100597.60;;;25.90
67501;BMP180;54349;52.528;19.760;2023-05-24T09:51:26;100601.60;;;26.00
67501;BMP180;54349;52.528;19.760;2023-05-24T09:54:01;100602.60;;;26.00
67501;BMP180;54349;52.528;19.760;2023-05-24T09:56:32;100607.00;;;26.00
67501;BMP180;54349;52.528;19.760;2023-05-24T09:59:08;100607.40;;;26.00
67501;BMP180;54349;52.528;19.760;2023-05-24T10:01:36;100601.00;;;26.00
67501;BMP180;54349;52.528;19.760;2023-05-24T10:04:05;100601.80;;;26.00
67501;BMP180;54349;52.528;19.760;2023-05-24T10:06:38;100597.20;;;26.02
67501;BMP180;54349;52.528;19.760;2023-05-24T10:09:10;100597.20;;;26.10
67501;BMP180;54349;52.528;19.760;2023-05-24T10:11:41;100597.80;;;26.10
67501;BMP180;54349;52.528;19.760;2023-05-24T10:14:09;100595.40;;;26.10
67501;BMP180;54349;52.528;19.760;2023-05-24T10:16:38;100600.40;;;26.20
67501;BMP180;54349;52.528;19.760;2023-05-24T10:19:06;100601.00;;;26.20
67501;BMP180;54349;52.528;19.760;2023-05-24T10:21:39;100601.20;;;26.30
67501;BMP180;54349;52.528;19.760;2023-05-24T10:24:12;100604.20;;;26.30
67501;BMP180;54349;52.528;19.760;2023-05-24T10:26:41;100602.20;;;26.34
67501;BMP180;54349;52.528;19.760;2023-05-24T10:32:20;100607.20;;;26.40
67501;BMP180;54349;52.528;19.760;2023-05-24T10:34:49;100614.80;;;26.48
67501;BMP180;54349;52.528;19.760;2023-05-24T10:37:18;100617.40;;;26.50
67501;BMP180;54349;52.528;19.760;2023-05-24T10:39:47;100614.20;;;26.60
67501;BMP180;54349;52.528;19.760;2023-05-24T10:42:15;100611.00;;;26.70
67501;BMP180;54349;52.528;19.760;2023-05-24T10:44:44;100611.60;;;26.78
67501;BMP180;54349;52.528;19.760;2023-05-24T10:47:14;100617.80;;;26.80
67501;BMP180;54349;52.528;19.760;2023-05-24T10:49:55;100617.00;;;26.90
67501;BMP180;54349;52.528;19.760;2023-05-24T10:52:35;100620.20;;;26.90
67501;BMP180;54349;52.528;19.760;2023-05-24T10:55:09;100616.00;;;26.96
67501;BMP180;54349;52.528;19.760;2023-05-24T10:57:39;100620.80;;;27.02
67501;BMP180;54349;52.528;19.760;2023-05-24T11:03:06;100626.80;;;27.20
67501;BMP180;54349;52.528;19.760;2023-05-24T11:08:33;100623.40;;;27.40
67501;BMP180;54349;52.528;19.760;2023-05-24T11:11:13;100625.40;;;27.40
67501;BMP180;54349;52.528;19.760;2023-05-24T11:13:59;100627.00;;;27.50
67501;BMP180;54349;52.528;19.760;2023-05-24T11:16:36;100626.00;;;27.60
67501;BMP180;54349;52.528;19.760;2023-05-24T11:21:49;100631.20;;;27.70
67501;BMP180;54349;52.528;19.760;2023-05-24T11:24:20;100632.60;;;27.80
67501;BMP180;54349;52.528;19.760;2023-05-24T11:26:49;100633.20;;;27.90
67501;BMP180;54349;52.528;19.760;2023-05-24T11:29:19;100636.00;;;27.90
67501;BMP180;54349;52.528;19.760;2023-05-24T11:34:20;100641.80;;;28.00
67501;BMP180;54349;52.528;19.760;2023-05-24T11:36:50;100642.60;;;28.10
67501;BMP180;54349;52.528;19.760;2023-05-24T11:39:22;100644.20;;;28.10
67501;BMP180;54349;52.528;19.760;2023-05-24T11:41:53;100644.60;;;28.20
67501;BMP180;54349;52.528;19.760;2023-05-24T11:44:43;100642.40;;;28.20
67501;BMP180;54349;52.528;19.760;2023-05-24T11:47:19;100649.60;;;28.30
67501;BMP180;54349;52.528;19.760;2023-05-24T11:49:50;100653.00;;;28.24
67501;BMP180;54349;52.528;19.760;2023-05-24T11:52:19;100647.60;;;27.64
67501;BMP180;54349;52.528;19.760;2023-05-24T11:54:49;100645.60;;;26.82
67501;BMP180;54349;52.528;19.760;2023-05-24T11:57:28;100641.60;;;26.06
67501;BMP180;54349;52.528;19.760;2023-05-24T11:59:58;100641.40;;;25.50
67501;BMP180;54349;52.528;19.760;2023-05-24T12:02:29;100647.00;;;25.00
67501;BMP180;54349;52.528;19.760;2023-05-24T12:05:06;100645.20;;;24.60
67501;BMP180;54349;52.528;19.760;2023-05-24T12:08:18;100648.20;;;24.10
67501;BMP180;54349;52.528;19.760;2023-05-24T12:11:59;100644.00;;;23.50
67501;BMP180;54349;52.528;19.760;2023-05-24T12:14:32;100648.20;;;23.20
67501;BMP180;54349;52.528;19.760;2023-05-24T12:17:01;100648.20;;;23.00
67501;BMP180;54349;52.528;19.760;2023-05-24T12:19:32;100644.80;;;22.80
67501;BMP180;54349;52.528;19.760;2023-05-24T12:22:05;100644.20;;;22.60
67501;BMP180;54349;52.528;19.760;2023-05-24T12:24:36;100644.00;;;22.50
67501;BMP180;54349;52.528;19.760;2023-05-24T12:27:06;100646.40;;;22.30
67501;BMP180;54349;52.528;19.760;2023-05-24T12:29:39;100645.40;;;22.20
67501;BMP180;54349;52.528;19.760;2023-05-24T12:32:10;100644.40;;;22.00
67501;BMP180;54349;52.528;19.760;2023-05-24T12:34:43;100640.40;;;21.90
67501;BMP180;54349;52.528;19.760;2023-05-24T12:37:13;100642.40;;;21.80
67501;BMP180;54349;52.528;19.760;2023-05-24T12:39:42;100645.00;;;21.70
67501;BMP180;54349;52.528;19.760;2023-05-24T12:42:12;100644.20;;;21.60
67501;BMP180;54349;52.528;19.760;2023-05-24T12:44:41;100643.80;;;21.50
67501;BMP180;54349;52.528;19.760;2023-05-24T12:47:10;100642.40;;;21.50
67501;BMP180;54349;52.528;19.760;2023-05-24T12:49:39;100643.20;;;21.50
67501;BMP180;54349;52.528;19.760;2023-05-24T12:52:07;100642.00;;;21.40
67501;BMP180;54349;52.528;19.760;2023-05-24T12:54:38;100641.60;;;21.40
67501;BMP180;54349;52.528;19.760;2023-05-24T12:57:06;100637.20;;;21.40
67501;BMP180;54349;52.528;19.760;2023-05-24T12:59:35;100643.00;;;21.30
67501;BMP180;54349;52.528;19.760;2023-05-24T13:02:05;100645.40;;;21.30
67501;BMP180;54349;52.528;19.760;2023-05-24T13:04:34;100641.00;;;21.30
67501;BMP180;54349;52.528;19.760;2023-05-24T13:07:04;100637.00;;;21.20
67501;BMP180;54349;52.528;19.760;2023-05-24T13:09:33;100636.00;;;21.10
67501;BMP180;54349;52.528;19.760;2023-05-24T13:12:02;100638.00;;;21.10
67501;BMP180;54349;52.528;19.760;2023-05-24T13:14:30;100635.60;;;21.00
67501;BMP180;54349;52.528;19.760;2023-05-24T13:16:59;100635.00;;;21.00
67501;BMP180;54349;52.528;19.760;2023-05-24T13:19:27;100630.60;;;20.90
67501;BMP180;54349;52.528;19.760;2023-05-24T13:21:56;100632.60;;;20.90
67501;BMP180;54349;52.528;19.760;2023-05-24T13:24:25;100628.00;;;20.80
67501;BMP180;54349;52.528;19.760;2023-05-24T13:26:54;100629.60;;;20.76
67501;BMP180;54349;52.528;19.760;2023-05-24T13:29:22;100628.80;;;20.70
67501;BMP180;54349;52.528;19.760;2023-05-24T13:31:53;100628.40;;;20.70
67501;BMP180;54349;52.528;19.760;2023-05-24T13:34:22;100626.80;;;20.60
67501;BMP180;54349;52.528;19.760;2023-05-24T13:36:53;100628.20;;;20.60
67501;BMP180;54349;52.528;19.760;2023-05-24T13:39:22;100623.80;;;20.52
67501;BMP180;54349;52.528;19.760;2023-05-24T13:41:51;100622.60;;;20.50
67501;BMP180;54349;52.528;19.760;2023-05-24T13:44:19;100624.40;;;20.50
67501;BMP180;54349;52.528;19.760;2023-05-24T13:46:48;100626.40;;;20.48
67501;BMP180;54349;52.528;19.760;2023-05-24T13:49:17;100626.20;;;20.40
67501;BMP180;54349;52.528;19.760;2023-05-24T13:51:46;100623.00;;;20.40
67501;BMP180;54349;52.528;19.760;2023-05-24T13:54:14;100623.60;;;20.38
67501;BMP180;54349;52.528;19.760;2023-05-24T13:56:43;100628.60;;;20.30
67501;BMP180;54349;52.528;19.760;2023-05-24T13:59:12;100634.60;;;20.30
67501;BMP180;54349;52.528;19.760;2023-05-24T14:01:41;100629.60;;;20.30
67501;BMP180;54349;52.528;19.760;2023-05-24T14:04:10;100628.40;;;20.30
67501;BMP180;54349;52.528;19.760;2023-05-24T14:06:38;100635.20;;;20.20
67501;BMP180;54349;52.528;19.760;2023-05-24T14:09:06;100631.40;;;20.20
67501;BMP180;54349;52.528;19.760;2023-05-24T14:11:35;100634.20;;;20.20
67501;BMP180;54349;52.528;19.760;2023-05-24T14:14:04;100631.00;;;20.20
67501;BMP180;54349;52.528;19.760;2023-05-24T14:16:35;100638.40;;;20.16
67501;BMP180;54349;52.528;19.760;2023-05-24T14:19:04;100638.00;;;20.10
67501;BMP180;54349;52.528;19.760;2023-05-24T14:21:33;100635.40;;;20.10